Terminal Aerodrome Forecast
Issued by NWS

Home | Current Version | Previous Version | Graphics & Text | Print | Product List | Glossary On
Versions: 1 2 3 4 5 6 7 8 9 10 11 12 13 14 15 16 17
000
FTUS43 KMPX 302341
TAFAXN
TAF
KAXN 302341Z 0100/0124 16012G16KT P6SM SCT250
     FM010800 17010KT P6SM -RA SCT050 OVC070
     FM011100 22007KT P6SM VCSH SCT050 SCT090
     FM011300 20009KT P6SM SCT080
     FM011900 31008KT P6SM FEW100=

USA.gov is the U.S. government's official web portal to all federal, state and local government web resources and services.